Aviation Weather View - Albury, NSW
Albury
METAR YMAY 162230Z 14007KT 9999 SCT043 24/15 Q1012
ADVISORY INFORMATION ONLY.
Information and images sourced on a "best effort" basis from
our own station 2.7NM north of the field at 1016ft AMSL.
Weather information is NOT from the Albury Airport.

Contact Ross on 0409-578-660
Updated 2251Z (17-Feb-2020 at 09:51:04 local)
Temperature 25.2 Deg C
QNH is 1013
Humidity is 56% RH
Dewpoint is 15.8 Deg C
Estimated Cloudbase is 4900 feet amsl
Wind: 5 KT from 038 degrees magnetic (026 true)
Runway 07 Crosswind 2KT Left to Right
Runway 25 Crosswind 2KT Right to Left 4KT downwind
Wind last 10 minutes: Average 3 KT
Solar Insolation: 577 W/m^2

TWR: 123.25 SMC: 121.8 AWIS: 134.525 ATIS: 115.6/133.85 Map
How to interpret the wind rose
Wind Rose
Solar Radiation Decoded METAR data
Albury Airport (94896, YMAY)
WMO Index: 95896
ID Name: YMAY
Date/Time: 16-Feb-2020 2230 UTC
Lat/Lon: 36.07S 146.95E
Wind: 140 deg true at 07.0 knots
Temperature: 24.1 deg C
Dewpoint: 14.5 deg C
QNH: 1012.8
Rain since 9am: 0.0
Rain last 10 mins: 0.0
Visibility: -9999 metres
AutoVisibility: 10000 metres
Max Wind Gust last 10 mins: 10.0 knots
Scattered 1320m (4329ft)

Calculated humidity: 55.0 %RH